Time;durP1;ratioP1;P1;durP2;ratioP2;P2;SDS_P1;SDS_P2;PMS_P1;PMS_P2;Temp;Humidity;BMP_temperature;BMP_pressure;BME280_temperature;BME280_humidity;BME280_pressure;Samples;Min_cycle;Max_cycle;Signal;HPM_P1;HPM_P2
2023/01/11 00:00:40;;;;;;;7.87;3.67;;;;;;;7.52;56.32;98122.09;8315168;28;20238;-79
2023/01/11 00:04:43;;;;;;;4.77;2.90;;;;;;;7.72;55.85;98127.50;8314988;28;20245;-78
2023/01/11 00:08:47;;;;;;;6.43;3.40;;;;;;;7.71;55.13;98130.13;8314883;28;20499;-79
2023/01/11 00:12:50;;;;;;;5.43;2.80;;;;;;;7.27;56.90;98121.97;8314816;28;20230;-80
2023/01/11 00:16:53;;;;;;;7.70;3.33;;;;;;;7.79;54.67;98126.44;8314761;28;20380;-79
2023/01/11 00:20:56;;;;;;;7.37;2.83;;;;;;;7.78;55.26;98122.16;8314969;28;20237;-80
2023/01/11 00:25:00;;;;;;;5.07;2.70;;;;;;;8.07;54.45;98117.81;8315225;28;20234;-79
2023/01/11 00:29:03;;;;;;;4.43;2.50;;;;;;;7.72;55.20;98109.47;8314369;28;20233;-79
2023/01/11 00:33:06;;;;;;;5.07;2.00;;;;;;;7.60;55.48;98113.25;8315552;28;20230;-80
2023/01/11 00:37:09;;;;;;;4.60;1.97;;;;;;;7.98;54.44;98100.91;8316211;28;20233;-79
2023/01/11 00:49:55;;;;;;;5.67;2.07;;;;;;;8.01;56.14;98054.41;8314171;28;20296;-79
2023/01/11 00:53:58;;;;;;;6.27;1.90;;;;;;;7.98;57.10;98076.88;8314518;28;20234;-79
2023/01/11 00:58:02;;;;;;;5.10;2.00;;;;;;;7.83;58.67;98067.88;8315634;28;20225;-80
2023/01/11 01:02:05;;;;;;;4.27;1.90;;;;;;;7.91;58.44;98062.47;8321030;28;20312;-79
2023/01/11 01:06:08;;;;;;;4.17;2.00;;;;;;;8.09;57.92;98041.25;8321736;28;20226;-80
2023/01/11 01:10:13;;;;;;;6.20;2.20;;;;;;;7.86;59.44;98049.72;8321763;28;20272;-80
2023/01/11 01:14:27;;;;;;;6.63;2.20;;;;;;;7.94;59.47;98031.41;8321156;28;20294;-80
2023/01/11 01:18:30;;;;;;;3.83;1.80;;;;;;;7.48;61.50;98056.06;8321426;28;20273;-80
2023/01/11 01:22:33;;;;;;;6.70;2.17;;;;;;;7.46;61.49;98052.72;8320392;28;20457;-80
2023/01/11 01:26:36;;;;;;;6.60;2.00;;;;;;;7.68;61.02;98045.16;8318599;28;20230;-80
2023/01/11 01:30:40;;;;;;;5.43;2.03;;;;;;;7.85;60.64;98052.38;8318602;28;20233;-80
2023/01/11 01:34:43;;;;;;;6.93;2.00;;;;;;;7.99;60.38;98051.00;8318076;28;20222;-80
2023/01/11 01:38:46;;;;;;;4.40;2.23;;;;;;;7.68;61.40;98043.44;8318523;28;20283;-80
2023/01/11 01:42:53;;;;;;;3.47;2.03;;;;;;;7.46;62.28;98037.25;8318303;28;20231;-80
2023/01/11 01:46:57;;;;;;;5.10;2.60;;;;;;;7.42;62.93;98037.34;8318189;28;20230;-80
2023/01/11 01:51:00;;;;;;;6.27;2.60;;;;;;;6.85;63.81;98027.84;8318092;28;20238;-80
2023/01/11 01:55:07;;;;;;;5.77;2.53;;;;;;;6.91;63.69;98029.41;8317962;28;20237;-80
2023/01/11 01:59:12;;;;;;;6.23;2.40;;;;;;;6.85;64.10;98023.56;8317822;28;20325;-80
2023/01/11 02:03:18;;;;;;;5.63;2.30;;;;;;;7.05;64.19;98020.41;8317468;28;20241;-81
2023/01/11 02:07:25;;;;;;;3.67;2.10;;;;;;;7.10;63.78;98022.88;8317431;28;20241;-80
2023/01/11 02:11:30;;;;;;;7.20;2.70;;;;;;;6.80;64.96;98024.59;8316036;28;20426;-80
2023/01/11 02:15:34;;;;;;;6.83;2.20;;;;;;;7.09;64.80;98010.88;8317253;28;20229;-80
2023/01/11 02:19:53;;;;;;;4.37;2.30;;;;;;;6.77;65.01;97999.75;8316990;28;20233;-81
2023/01/11 02:24:14;;;;;;;4.40;2.17;;;;;;;7.38;63.82;97991.09;8316755;28;20459;-80
2023/01/11 02:28:24;;;;;;;4.60;2.20;;;;;;;6.46;67.33;97987.75;8316798;28;20230;-81
2023/01/11 02:32:31;;;;;;;5.43;2.10;;;;;;;6.84;66.42;97983.25;8316422;28;20233;-80
2023/01/11 02:36:39;;;;;;;5.63;2.10;;;;;;;7.06;65.71;97982.63;8316917;28;20226;-80
2023/01/11 02:40:51;;;;;;;5.03;2.17;;;;;;;6.89;65.96;97971.97;8316204;28;20276;-79
2023/01/11 02:45:01;;;;;;;5.30;2.30;;;;;;;6.55;67.69;97966.09;8316032;28;20226;-81
2023/01/11 02:49:09;;;;;;;6.50;2.60;;;;;;;6.48;68.05;97971.44;8316299;28;20233;-80
2023/01/11 02:53:16;;;;;;;3.97;2.00;;;;;;;7.15;65.41;97969.47;8315975;28;20230;-80
2023/01/11 02:57:20;;;;;;;4.67;2.20;;;;;;;6.79;67.22;97971.41;8316229;28;20246;-80
2023/01/11 03:01:24;;;;;;;5.30;2.70;;;;;;;6.72;67.05;97977.59;8315520;28;20226;-80
2023/01/11 03:05:27;;;;;;;6.53;2.60;;;;;;;6.46;67.78;97959.47;8315308;28;20548;-79
2023/01/11 03:09:36;;;;;;;4.13;2.27;;;;;;;6.29;69.67;97955.69;8315712;28;20226;-80
2023/01/11 03:13:50;;;;;;;4.43;2.17;;;;;;;6.42;69.02;97950.16;8315307;28;20418;-80
2023/01/11 03:17:59;;;;;;;4.67;2.13;;;;;;;7.12;66.03;97951.56;8315299;28;20226;-80
2023/01/11 03:22:07;;;;;;;4.77;2.40;;;;;;;6.05;68.69;97948.59;8314672;28;20238;-80
2023/01/11 03:26:15;;;;;;;6.80;3.00;;;;;;;6.44;68.54;97942.38;8315277;28;20226;-79
2023/01/11 03:30:23;;;;;;;6.33;2.63;;;;;;;6.71;67.35;97934.75;8314798;28;20273;-80
2023/01/11 03:34:33;;;;;;;6.73;2.67;;;;;;;6.92;66.30;97925.56;8315079;28;20226;-80
2023/01/11 03:38:40;;;;;;;4.80;2.53;;;;;;;6.79;67.57;97918.19;8314966;28;20229;-79
2023/01/11 03:47:04;;;;;;;4.60;2.53;;;;;;;6.74;67.23;97909.78;8314047;28;20238;-80
2023/01/11 03:51:12;;;;;;;4.20;2.60;;;;;;;6.90;66.86;97904.16;8314399;28;20234;-78
2023/01/11 03:55:16;;;;;;;5.30;2.70;;;;;;;6.76;67.24;97891.69;8314411;28;20233;-80
2023/01/11 03:59:19;;;;;;;2.73;2.20;;;;;;;6.89;67.12;97894.75;8314264;28;20226;-80
2023/01/11 04:03:22;;;;;;;6.33;2.80;;;;;;;7.10;65.54;97894.09;8314161;28;20257;-80
2023/01/11 04:07:30;;;;;;;5.07;2.73;;;;;;;6.96;66.76;97896.25;8313978;28;20307;-80
2023/01/11 04:11:33;;;;;;;5.97;2.97;;;;;;;7.16;65.45;97883.59;8314011;28;20506;-80
2023/01/11 04:15:35;;;;;;;4.67;2.47;;;;;;;7.61;64.54;97882.97;8313944;28;20233;-80
2023/01/11 04:19:38;;;;;;;4.60;2.50;;;;;;;7.73;64.14;97878.28;8313619;28;20230;-80
2023/01/11 04:23:42;;;;;;;3.43;2.47;;;;;;;7.97;62.49;97884.34;8313264;28;20261;-78
2023/01/11 04:27:45;;;;;;;5.47;2.97;;;;;;;7.68;64.18;97883.63;8313600;28;20568;-79
2023/01/11 04:31:48;;;;;;;6.83;3.97;;;;;;;7.33;65.27;97882.19;8313435;28;20230;-79
2023/01/11 04:35:51;;;;;;;7.33;4.17;;;;;;;7.60;64.51;97871.00;8312788;28;20601;-80
2023/01/11 04:39:55;;;;;;;5.83;3.10;;;;;;;6.97;66.30;97879.94;8313496;28;20544;-80
2023/01/11 04:43:58;;;;;;;6.23;3.17;;;;;;;7.42;65.28;97872.47;8312917;28;20532;-79
2023/01/11 04:48:01;;;;;;;5.53;3.00;;;;;;;7.04;66.46;97866.81;8312927;28;20233;-80
2023/01/11 04:52:04;;;;;;;5.30;2.90;;;;;;;7.42;64.77;97866.44;8313197;28;20236;-81
2023/01/11 04:56:09;;;;;;;4.80;2.57;;;;;;;7.11;66.00;97866.59;8312948;28;20234;-80
2023/01/11 05:00:14;;;;;;;3.90;2.50;;;;;;;7.21;66.13;97866.25;8313027;28;20226;-80
2023/01/11 05:04:17;;;;;;;3.30;2.50;;;;;;;7.11;66.67;97864.03;8312806;28;20462;-80
2023/01/11 05:08:20;;;;;;;4.30;3.20;;;;;;;7.15;66.09;97868.19;8312448;28;20308;-79
2023/01/11 05:12:24;;;;;;;7.20;3.90;;;;;;;7.39;65.86;97861.41;8312681;28;20332;-80
2023/01/11 05:16:27;;;;;;;5.17;3.67;;;;;;;7.38;65.68;97863.13;8313238;28;20513;-80
2023/01/11 05:20:30;;;;;;;4.90;2.80;;;;;;;7.56;65.26;97860.84;8312667;28;20564;-80
2023/01/11 05:24:32;;;;;;;7.20;2.57;;;;;;;7.70;64.72;97856.03;8312638;28;20230;-79
2023/01/11 05:28:36;;;;;;;4.60;2.53;;;;;;;7.90;64.14;97847.63;8312683;28;20514;-78
2023/01/11 05:32:39;;;;;;;3.67;2.60;;;;;;;8.07;63.95;97844.41;8312170;28;20427;-78
2023/01/11 05:36:42;;;;;;;3.87;2.40;;;;;;;8.03;64.39;97842.84;8311962;28;20237;-77
2023/01/11 05:40:45;;;;;;;4.27;2.47;;;;;;;8.00;64.58;97842.97;8312400;28;20233;-80
2023/01/11 05:49:11;;;;;;;6.07;2.60;;;;;;;8.51;62.56;97834.25;8318260;28;20418;-81
2023/01/11 05:53:13;;;;;;;3.57;2.47;;;;;;;8.39;63.34;97837.25;8318432;28;20230;-81
2023/01/11 05:57:16;;;;;;;4.13;2.23;;;;;;;7.85;63.74;97771.34;8318643;28;20257;-79
2023/01/11 06:01:21;;;;;;;4.37;2.40;;;;;;;8.30;62.65;97827.25;8317727;28;20222;-79
2023/01/11 06:05:24;;;;;;;3.97;2.13;;;;;;;8.34;64.04;97829.69;8317189;28;20422;-78
2023/01/11 06:09:27;;;;;;;5.63;2.43;;;;;;;8.54;62.13;97821.19;8317583;28;20522;-78
2023/01/11 06:13:32;;;;;;;3.77;2.60;;;;;;;8.57;62.58;97810.78;8317604;28;20231;-78
2023/01/11 06:17:36;;;;;;;3.40;2.17;;;;;;;8.27;63.18;97822.25;8316843;28;20230;-78
2023/01/11 06:21:40;;;;;;;5.47;2.97;;;;;;;8.69;62.59;97826.69;8316798;28;20241;-78
2023/01/11 06:25:42;;;;;;;6.33;4.07;;;;;;;8.59;62.25;97787.50;8316545;28;20222;-78
2023/01/11 06:29:47;;;;;;;6.60;4.20;;;;;;;8.91;61.92;97819.78;8317231;28;20224;-79
2023/01/11 06:33:51;;;;;;;7.73;4.17;;;;;;;8.46;62.68;97810.34;8316752;28;20228;-79
2023/01/11 06:37:53;;;;;;;5.80;2.50;;;;;;;8.22;63.71;97766.50;8317133;28;20230;-79
2023/01/11 06:41:56;;;;;;;5.17;2.07;;;;;;;8.52;64.13;97804.94;8316557;28;20253;-79
2023/01/11 06:45:59;;;;;;;3.30;2.27;;;;;;;8.76;62.67;97798.00;8316655;28;20238;-79
2023/01/11 06:50:03;;;;;;;3.97;1.73;;;;;;;8.89;62.34;97793.19;8317051;28;20243;-79
2023/01/11 06:54:06;;;;;;;2.70;1.70;;;;;;;8.90;62.76;97799.19;8316635;28;20234;-79
2023/01/11 06:58:08;;;;;;;2.90;1.70;;;;;;;8.77;62.74;97797.06;8316040;28;20237;-80
2023/01/11 07:02:11;;;;;;;3.23;1.87;;;;;;;9.12;62.36;97796.53;8316652;28;20227;-79
2023/01/11 07:06:15;;;;;;;3.07;1.90;;;;;;;9.15;62.13;97793.84;8316364;28;20230;-79
2023/01/11 07:10:18;;;;;;;3.20;2.10;;;;;;;8.68;64.01;97794.88;8316054;28;20224;-79
2023/01/11 07:14:21;;;;;;;2.57;1.73;;;;;;;9.06;63.25;97787.31;8316371;28;20238;-79
2023/01/11 07:18:24;;;;;;;4.17;2.70;;;;;;;8.76;63.85;97792.81;8315960;28;20230;-80
2023/01/11 07:22:29;;;;;;;5.57;3.90;;;;;;;8.99;63.60;97793.66;8315879;28;20230;-79
2023/01/11 07:26:32;;;;;;;6.03;4.13;;;;;;;8.71;63.88;97797.31;8316019;28;20434;-79
2023/01/11 07:30:37;;;;;;;2.67;2.40;;;;;;;8.43;65.05;97797.53;8315939;28;20227;-79
2023/01/11 07:34:58;;;;;;;3.87;2.63;;;;;;;8.66;64.03;97800.97;8315118;28;20234;-80
2023/01/11 07:39:02;;;;;;;3.63;2.97;;;;;;;8.34;65.44;97803.88;8315245;28;20253;-80
2023/01/11 07:43:13;;;;;;;5.27;3.07;;;;;;;8.26;65.95;97805.06;8315242;28;20534;-79
2023/01/11 07:47:16;;;;;;;5.33;3.20;;;;;;;8.46;64.88;97792.28;8315070;28;20449;-80
2023/01/11 07:51:22;;;;;;;6.40;3.37;;;;;;;8.80;64.71;97788.38;8314782;28;20245;-79
2023/01/11 07:55:27;;;;;;;4.87;3.30;;;;;;;8.55;65.53;97784.19;8314513;28;20257;-79
2023/01/11 07:59:30;;;;;;;6.43;3.27;;;;;;;8.60;65.30;97782.28;8314501;28;20294;-79
2023/01/11 08:03:33;;;;;;;4.53;3.07;;;;;;;8.46;66.67;97786.28;8314296;28;20521;-79
2023/01/11 08:07:35;;;;;;;5.83;3.10;;;;;;;8.65;65.85;97778.66;8313682;28;20641;-79
2023/01/11 08:16:00;;;;;;;2.40;2.03;;;;;;;8.91;65.90;97772.44;8313643;28;20226;-79
2023/01/11 08:20:03;;;;;;;5.17;2.63;;;;;;;8.79;66.61;97766.88;8314110;28;20250;-80
2023/01/11 08:24:07;;;;;;;4.93;2.87;;;;;;;8.92;65.80;97769.78;8313830;28;20234;-80
2023/01/11 08:28:12;;;;;;;3.67;2.20;;;;;;;8.87;66.99;97773.47;8314148;28;20517;-80
2023/01/11 08:32:15;;;;;;;5.03;2.40;;;;;;;9.26;65.06;97788.25;8313835;28;20230;-80
2023/01/11 08:36:18;;;;;;;3.60;2.70;;;;;;;9.13;66.01;97775.81;8314013;28;20269;-81
2023/01/11 08:40:20;;;;;;;2.20;2.00;;;;;;;9.18;65.56;97773.91;8313488;28;20235;-80
2023/01/11 08:44:27;;;;;;;2.40;1.57;;;;;;;9.50;63.40;97776.88;8313654;28;20230;-80
2023/01/11 08:48:36;;;;;;;4.67;1.47;;;;;;;9.62;63.41;97783.25;8313563;28;20325;-81
2023/01/11 08:52:39;;;;;;;2.13;1.30;;;;;;;9.49;62.70;97777.75;8313497;28;20230;-80
2023/01/11 08:56:42;;;;;;;2.40;1.40;;;;;;;9.75;61.69;97775.81;8313238;28;20231;-81
2023/01/11 09:00:46;;;;;;;2.20;1.10;;;;;;;9.62;62.14;97757.38;8313377;28;20226;-78
2023/01/11 09:04:49;;;;;;;1.73;1.10;;;;;;;9.69;62.51;97763.13;8313213;28;20543;-81
2023/01/11 09:08:52;;;;;;;2.63;1.50;;;;;;;9.76;61.88;97759.38;8313047;28;20258;-80
2023/01/11 09:12:55;;;;;;;2.50;1.40;;;;;;;9.65;62.21;97767.59;8312967;28;20258;-80
2023/01/11 09:16:59;;;;;;;2.87;1.67;;;;;;;9.66;62.23;97768.44;8312952;28;20239;-80
2023/01/11 09:21:02;;;;;;;2.30;1.67;;;;;;;9.75;62.41;97763.72;8317062;28;20250;-79
2023/01/11 09:25:07;;;;;;;2.30;1.50;;;;;;;9.81;61.80;97754.84;8319101;28;20235;-78
2023/01/11 09:29:10;;;;;;;3.50;1.40;;;;;;;9.95;61.22;97752.44;8319159;28;20236;-80
2023/01/11 09:33:14;;;;;;;2.37;1.30;;;;;;;9.91;61.67;97753.50;8319181;28;20378;-77
2023/01/11 09:37:18;;;;;;;1.50;1.30;;;;;;;10.15;61.04;97748.13;8319134;28;20236;-79
2023/01/11 09:41:32;;;;;;;2.43;1.50;;;;;;;10.25;60.39;97746.78;8318694;28;20224;-79
2023/01/11 09:45:35;;;;;;;1.50;1.23;;;;;;;10.27;60.74;97744.13;8318678;28;20236;-79
2023/01/11 09:49:42;;;;;;;2.60;1.67;;;;;;;10.12;61.15;97735.34;8318612;28;20234;-79
2023/01/11 09:53:49;;;;;;;2.93;1.30;;;;;;;10.30;60.79;97725.84;8318101;28;20225;-78
2023/01/11 09:58:13;;;;;;;1.80;1.40;;;;;;;10.55;60.55;97728.19;8318570;28;20651;-79
2023/01/11 10:02:27;;;;;;;2.00;1.30;;;;;;;10.53;60.32;97722.22;8318117;28;20224;-79
2023/01/11 10:06:34;;;;;;;1.97;1.20;;;;;;;10.36;60.61;97705.75;8317775;28;20522;-79
2023/01/11 10:10:46;;;;;;;2.40;1.40;;;;;;;10.31;60.88;97702.53;8318229;28;20242;-81
2023/01/11 10:15:14;;;;;;;2.67;1.43;;;;;;;10.14;61.46;97686.94;8317775;28;20517;-80
2023/01/11 10:19:44;;;;;;;2.37;1.10;;;;;;;11.03;64.40;97697.34;8317424;28;20241;-79
2023/01/11 10:23:50;;;;;;;1.00;1.00;;;;;;;11.33;59.70;97700.97;8316634;28;20234;-80
2023/01/11 10:27:57;;;;;;;1.97;1.23;;;;;;;12.40;58.81;97690.94;8317028;28;20227;-83
2023/01/11 10:32:17;;;;;;;2.90;0.97;;;;;;;12.03;57.89;97694.72;8315641;28;20226;-81
2023/01/11 10:36:38;;;;;;;2.47;1.20;;;;;;;11.49;58.59;97688.03;8316767;28;20222;-80
2023/01/11 10:41:05;;;;;;;2.23;1.37;;;;;;;11.47;58.91;97684.69;8317076;28;20227;-79
2023/01/11 10:45:13;;;;;;;2.70;1.10;;;;;;;11.26;59.65;97684.03;8316512;28;20233;-79
2023/01/11 10:49:28;;;;;;;1.60;1.43;;;;;;;11.59;59.22;97679.75;8317025;28;20222;-84
2023/01/11 10:53:36;;;;;;;1.60;1.10;;;;;;;11.20;60.13;97676.59;8316852;28;20257;-80
2023/01/11 10:57:49;;;;;;;2.43;0.70;;;;;;;11.14;61.21;97680.34;8316502;28;20236;-79
2023/01/11 11:02:09;;;;;;;1.40;0.80;;;;;;;11.02;61.77;97677.50;8316340;28;20226;-79
2023/01/11 11:06:20;;;;;;;0.90;0.80;;;;;;;10.86;62.61;97673.09;8316259;28;20297;-79
2023/01/11 11:10:28;;;;;;;1.47;1.17;;;;;;;10.89;62.76;97674.69;8316693;28;20236;-80
2023/01/11 11:14:36;;;;;;;2.53;1.23;;;;;;;10.92;63.00;97677.16;8316697;28;20263;-79
2023/01/11 11:18:39;;;;;;;1.80;0.90;;;;;;;11.01;63.33;97666.31;8316561;28;20236;-79
2023/01/11 11:22:43;;;;;;;1.20;1.00;;;;;;;10.78;64.29;97667.50;8316531;28;20229;-79
2023/01/11 11:26:51;;;;;;;1.80;1.33;;;;;;;11.01;63.30;97657.72;8315687;28;20225;-79
2023/01/11 11:30:57;;;;;;;2.13;1.10;;;;;;;10.92;63.67;97654.66;8316017;28;20554;-81
2023/01/11 11:35:00;;;;;;;1.73;1.20;;;;;;;10.90;64.06;97660.84;8316244;28;20234;-79
2023/01/11 11:39:10;;;;;;;1.43;1.10;;;;;;;10.87;63.91;97651.47;8316321;28;20225;-80
2023/01/11 11:43:20;;;;;;;1.63;1.30;;;;;;;10.91;64.51;97640.03;8315046;28;20300;-79
2023/01/11 11:47:25;;;;;;;2.00;1.70;;;;;;;11.06;64.52;97645.34;8314765;28;20230;-80
2023/01/11 11:51:28;;;;;;;2.37;1.60;;;;;;;11.03;64.87;97635.16;8315207;28;20233;-80
2023/01/11 11:55:32;;;;;;;2.47;2.20;;;;;;;11.01;65.54;97642.16;8315102;28;20407;-80
2023/01/11 11:59:35;;;;;;;1.77;1.50;;;;;;;11.05;65.60;97638.50;8315003;28;20231;-80
2023/01/11 12:03:42;;;;;;;1.53;1.13;;;;;;;11.13;65.69;97634.59;8315179;28;20302;-79
2023/01/11 12:07:47;;;;;;;1.43;1.30;;;;;;;11.05;66.34;97625.53;8314730;28;20222;-79
2023/01/11 12:11:57;;;;;;;1.20;1.10;;;;;;;10.98;66.26;97619.81;8315239;28;20234;-79
2023/01/11 12:16:01;;;;;;;3.93;1.40;;;;;;;11.07;66.37;97597.81;8315096;28;20238;-80
2023/01/11 12:20:28;;;;;;;1.67;1.30;;;;;;;11.15;66.34;97616.38;8315094;28;20510;-80
2023/01/11 12:24:32;;;;;;;2.17;1.30;;;;;;;11.07;67.33;97619.34;8313930;28;20237;-80
2023/01/11 12:28:50;;;;;;;2.40;1.30;;;;;;;11.19;67.49;97615.28;8314252;28;20230;-80
2023/01/11 12:33:05;;;;;;;2.23;1.50;;;;;;;10.93;68.37;97616.66;8314250;28;20237;-80
2023/01/11 12:37:19;;;;;;;1.83;1.50;;;;;;;11.08;67.50;97613.28;8314628;28;20230;-79
2023/01/11 12:41:46;;;;;;;1.90;1.10;;;;;;;10.96;67.64;97586.22;8314139;28;20406;-79
2023/01/11 12:45:57;;;;;;;1.30;1.17;;;;;;;10.99;67.86;97589.59;8313578;28;20230;-79
2023/01/11 12:50:05;;;;;;;1.80;1.40;;;;;;;11.17;68.10;97605.94;8314482;28;20293;-79
2023/01/11 12:54:24;;;;;;;2.30;1.93;;;;;;;11.10;68.68;97608.84;8313395;28;20226;-79
2023/01/11 12:58:32;;;;;;;3.10;1.90;;;;;;;11.12;69.13;97612.19;8313901;28;20229;-82
2023/01/11 13:02:54;;;;;;;2.60;1.80;;;;;;;11.18;68.60;97605.03;8314015;28;20226;-83
2023/01/11 13:07:05;;;;;;;2.80;2.03;;;;;;;11.19;69.08;97607.50;8313805;28;20230;-82
2023/01/11 13:11:33;;;;;;;2.70;1.73;;;;;;;11.13;69.48;97597.47;8313957;28;20435;-81
2023/01/11 13:15:43;;;;;;;2.23;1.80;;;;;;;11.23;69.66;97603.88;8313572;28;20230;-81
2023/01/11 13:19:52;;;;;;;2.30;1.90;;;;;;;11.24;69.44;97599.50;8313001;28;20259;-81
2023/01/11 13:23:57;;;;;;;2.70;1.87;;;;;;;11.26;69.74;97589.91;8313446;28;20226;-81
2023/01/11 13:28:03;;;;;;;3.03;2.17;;;;;;;11.22;69.64;97591.81;8313438;28;20231;-78
2023/01/11 13:32:13;;;;;;;3.37;2.40;;;;;;;11.02;71.32;97600.59;8313826;28;20222;-79
2023/01/11 13:36:19;;;;;;;1.90;1.70;;;;;;;11.09;70.67;97581.25;8313146;28;20241;-80
2023/01/11 13:40:28;;;;;;;2.23;2.03;;;;;;;11.01;70.90;97577.41;8313258;28;20300;-80
2023/01/11 13:44:35;;;;;;;2.40;2.00;;;;;;;11.34;71.04;97596.31;8313150;28;20233;-79
2023/01/11 13:48:42;;;;;;;3.47;2.23;;;;;;;11.17;71.61;97590.38;8312859;28;20240;-80
2023/01/11 13:52:51;;;;;;;2.97;2.33;;;;;;;11.07;70.66;97554.56;8312872;28;20222;-77
2023/01/11 13:56:58;;;;;;;2.90;2.70;;;;;;;11.34;71.40;97604.09;8312485;28;20305;-80
2023/01/11 14:01:06;;;;;;;3.73;2.40;;;;;;;11.33;71.09;97604.22;8312133;28;20246;-79
2023/01/11 14:05:13;;;;;;;2.33;2.13;;;;;;;11.39;71.46;97622.03;8313053;28;20238;-79
2023/01/11 14:09:33;;;;;;;2.57;2.20;;;;;;;11.58;70.43;97626.25;8318081;28;20234;-79
2023/01/11 14:14:16;;;;;;;2.23;1.40;;;;;;;11.58;70.48;97636.63;8318117;28;20227;-76
2023/01/11 14:18:29;;;;;;;1.17;1.07;;;;;;;11.35;72.32;97636.06;8317822;28;20506;-76
2023/01/11 14:22:36;;;;;;;1.97;1.20;;;;;;;11.55;71.94;97641.00;8317822;28;20238;-78
2023/01/11 14:26:52;;;;;;;1.00;0.90;;;;;;;11.28;71.56;97595.84;8317873;28;20237;-80
2023/01/11 14:31:06;;;;;;;0.90;0.90;;;;;;;11.64;71.74;97644.88;8317304;28;20614;-79
2023/01/11 14:35:31;;;;;;;0.90;0.90;;;;;;;11.74;70.85;97648.66;8317163;28;20230;-78
2023/01/11 14:40:02;;;;;;;0.97;0.97;;;;;;;11.75;70.89;97654.69;8317244;28;20227;-78
2023/01/11 14:44:26;;;;;;;0.80;0.70;;;;;;;11.74;70.73;97658.19;8316118;28;20230;-78
2023/01/11 14:48:34;;;;;;;0.60;0.60;;;;;;;11.59;71.15;97654.66;8316420;28;20234;-75
2023/01/11 14:52:39;;;;;;;1.50;0.70;;;;;;;11.82;71.59;97658.63;8316417;28;20246;-78
2023/01/11 14:56:51;;;;;;;0.60;0.60;;;;;;;11.77;70.13;97662.41;8315695;28;20290;-76
2023/01/11 15:01:07;;;;;;;1.40;1.20;;;;;;;11.80;69.42;97672.59;8315897;28;20277;-78
2023/01/11 15:05:30;;;;;;;3.10;2.80;;;;;;;11.63;69.35;97671.75;8315906;28;20437;-78
2023/01/11 15:09:45;;;;;;;1.80;1.20;;;;;;;11.68;69.60;97684.47;8315684;28;20328;-78
2023/01/11 15:13:53;;;;;;;1.50;1.40;;;;;;;11.68;69.34;97674.09;8315386;28;20223;-78
2023/01/11 15:22:28;;;;;;;1.37;1.27;;;;;;;11.73;68.70;97683.31;8315783;28;20334;-77
2023/01/11 15:26:47;;;;;;;1.07;0.90;;;;;;;11.76;68.57;97687.47;8315357;28;20621;-77
2023/01/11 15:30:51;;;;;;;1.97;1.87;;;;;;;11.59;69.45;97700.50;8314464;28;20237;-77
2023/01/11 15:35:32;;;;;;;4.93;4.33;;;;;;;11.60;69.71;97697.00;8315244;28;20289;-77
2023/01/11 15:39:40;;;;;;;3.60;3.30;;;;;;;11.62;69.16;97701.19;8314849;28;20518;-77
2023/01/11 15:44:04;;;;;;;4.80;4.33;;;;;;;11.72;68.69;97710.16;8314670;28;20230;-77
2023/01/11 15:48:21;;;;;;;2.83;2.63;;;;;;;11.59;69.42;97716.06;8314210;28;20517;-78
2023/01/11 15:53:00;;;;;;;2.73;2.53;;;;;;;11.63;69.24;97726.22;8314979;28;20227;-78
2023/01/11 15:57:13;;;;;;;1.80;1.70;;;;;;;11.60;69.33;97728.97;8314255;28;20277;-78
2023/01/11 16:01:25;;;;;;;1.50;1.40;;;;;;;11.43;69.69;97740.22;8314731;28;20233;-78
2023/01/11 16:05:30;;;;;;;1.20;1.10;;;;;;;11.40;69.90;97744.72;8314214;28;20239;-77
2023/01/11 16:10:12;;;;;;;1.10;0.80;;;;;;;11.41;69.78;97754.19;8314414;28;20421;-78
2023/01/11 16:14:31;;;;;;;1.23;1.13;;;;;;;11.48;69.44;97766.75;8314344;28;20284;-77
2023/01/11 16:18:39;;;;;;;2.47;2.00;;;;;;;11.49;69.43;97783.97;8314061;28;20548;-76
2023/01/11 16:22:45;;;;;;;2.33;1.50;;;;;;;11.41;70.08;97791.31;8313171;28;20339;-77
2023/01/11 16:26:51;;;;;;;1.30;1.20;;;;;;;11.48;69.50;97790.09;8313493;28;20230;-72
2023/01/11 16:30:57;;;;;;;1.33;1.23;;;;;;;11.50;69.39;97788.25;8313006;28;20230;-76
2023/01/11 16:35:02;;;;;;;1.93;1.80;;;;;;;11.58;69.35;97800.00;8313323;28;20288;-76
2023/01/11 16:39:08;;;;;;;2.13;1.33;;;;;;;11.58;69.57;97808.63;8313396;28;20579;-75
2023/01/11 16:43:17;;;;;;;1.33;1.23;;;;;;;11.55;69.04;97808.75;8313327;28;20222;-75
2023/01/11 16:47:21;;;;;;;1.93;1.23;;;;;;;11.47;69.77;97806.56;8313390;28;20234;-75
2023/01/11 16:51:25;;;;;;;1.47;1.37;;;;;;;11.54;69.71;97818.31;8313255;28;20251;-76
2023/01/11 16:55:31;;;;;;;2.43;1.20;;;;;;;11.44;69.41;97818.81;8313331;28;20231;-77
2023/01/11 16:59:34;;;;;;;1.03;1.00;;;;;;;11.40;68.60;97831.09;8313443;28;20230;-77
2023/01/11 17:03:39;;;;;;;1.07;1.00;;;;;;;11.34;68.54;97832.25;8312966;28;20526;-77
2023/01/11 17:07:47;;;;;;;2.83;2.27;;;;;;;11.37;68.83;97836.47;8312124;28;20253;-75
2023/01/11 17:11:51;;;;;;;1.60;1.50;;;;;;;11.18;68.75;97831.34;8312811;28;20253;-75
2023/01/11 17:15:58;;;;;;;1.70;1.60;;;;;;;11.20;69.14;97855.44;8312818;28;20572;-76
2023/01/11 17:20:02;;;;;;;1.90;1.80;;;;;;;11.19;69.40;97856.34;8312576;28;20518;-76
2023/01/11 17:24:06;;;;;;;1.97;1.40;;;;;;;11.26;68.56;97870.69;8312475;28;20229;-76
2023/01/11 17:28:17;;;;;;;2.40;1.97;;;;;;;11.13;68.72;97867.00;8312543;28;20237;-75
2023/01/11 17:32:23;;;;;;;1.67;1.53;;;;;;;11.19;68.56;97879.66;8312465;28;20228;-75
2023/01/11 17:36:26;;;;;;;3.20;1.60;;;;;;;11.19;68.91;97879.66;8312565;28;20229;-76
2023/01/11 17:40:33;;;;;;;2.10;1.90;;;;;;;11.21;68.52;97879.59;8314571;28;20230;-77
2023/01/11 17:48:57;;;;;;;2.83;2.00;;;;;;;11.06;68.24;97876.84;8319180;28;20242;-76
2023/01/11 17:53:02;;;;;;;3.03;1.70;;;;;;;11.16;68.29;97897.97;8319004;28;20235;-76
2023/01/11 17:57:06;;;;;;;3.37;1.50;;;;;;;11.19;67.92;97902.16;8318841;28;20230;-74
2023/01/11 18:01:18;;;;;;;2.77;1.60;;;;;;;10.84;67.94;97845.91;8319378;28;20551;-78
2023/01/11 18:05:25;;;;;;;2.30;1.53;;;;;;;11.16;68.19;97905.75;8318923;28;20233;-76
2023/01/11 18:09:30;;;;;;;1.80;1.50;;;;;;;11.13;67.72;97898.09;8317939;28;20245;-74
2023/01/11 18:13:35;;;;;;;1.43;1.13;;;;;;;11.04;68.49;97898.53;8318127;28;20429;-75
2023/01/11 18:17:40;;;;;;;1.63;1.50;;;;;;;11.06;68.17;97914.84;8317831;28;20230;-75
2023/01/11 18:21:52;;;;;;;2.07;1.40;;;;;;;11.10;67.61;97904.28;8317140;28;20273;-74
2023/01/11 18:26:24;;;;;;;2.43;1.43;;;;;;;10.83;68.71;97914.16;8317236;28;20238;-74
2023/01/11 18:30:38;;;;;;;1.87;1.30;;;;;;;10.92;68.36;97926.69;8317508;28;20230;-75
2023/01/11 18:34:41;;;;;;;3.27;1.50;;;;;;;10.86;68.03;97921.81;8317233;28;20245;-75
2023/01/11 18:38:44;;;;;;;4.80;1.80;;;;;;;10.51;68.58;97871.66;8316806;28;20233;-79
2023/01/11 18:42:49;;;;;;;3.43;1.50;;;;;;;10.82;68.34;97925.47;8317064;28;20521;-76
2023/01/11 18:46:53;;;;;;;4.07;2.37;;;;;;;10.86;68.05;97934.75;8317120;28;20238;-74
2023/01/11 18:50:56;;;;;;;4.07;2.60;;;;;;;10.74;67.94;97931.00;8316511;28;20255;-76
2023/01/11 18:54:58;;;;;;;2.40;1.70;;;;;;;10.76;68.20;97939.53;8316652;28;20226;-76
2023/01/11 18:59:01;;;;;;;96.17;45.33;;;;;;;12.40;82.02;97942.00;8316654;28;20245;-75
2023/01/11 19:03:06;;;;;;;32.70;17.90;;;;;;;13.32;71.32;97955.28;8316644;28;20233;-77
2023/01/11 19:07:08;;;;;;;14.43;7.03;;;;;;;13.25;67.49;97962.56;8316159;28;20414;-75
2023/01/11 19:11:12;;;;;;;6.10;3.73;;;;;;;13.59;63.80;97959.84;8316046;28;20258;-75
2023/01/11 19:15:15;;;;;;;4.20;1.87;;;;;;;12.62;61.37;97963.34;8315826;28;20238;-75
2023/01/11 19:19:20;;;;;;;2.17;1.50;;;;;;;12.09;62.10;97965.19;8315674;28;20250;-72
2023/01/11 19:23:22;;;;;;;3.37;2.10;;;;;;;11.71;63.76;97978.28;8315741;28;20403;-73
2023/01/11 19:27:30;;;;;;;5.00;2.07;;;;;;;11.74;63.77;97978.13;8315578;28;20226;-77
2023/01/11 19:31:33;;;;;;;3.03;2.10;;;;;;;11.50;63.37;97990.53;8316095;28;20233;-75
2023/01/11 19:35:40;;;;;;;5.13;2.43;;;;;;;11.32;64.10;97986.22;8315629;28;20226;-75
2023/01/11 19:39:43;;;;;;;4.70;2.13;;;;;;;11.25;64.25;97984.81;8315034;28;20490;-76
2023/01/11 19:43:46;;;;;;;4.37;2.33;;;;;;;11.30;64.00;97990.63;8315294;28;20432;-78
2023/01/11 19:47:48;;;;;;;5.50;2.60;;;;;;;11.05;64.40;97981.41;8315017;28;20553;-75
2023/01/11 19:51:53;;;;;;;5.73;1.97;;;;;;;10.89;65.46;98003.72;8315030;28;20422;-76
2023/01/11 19:56:00;;;;;;;6.53;2.10;;;;;;;10.98;64.52;98005.91;8315194;28;20596;-76
2023/01/11 20:00:04;;;;;;;5.63;1.93;;;;;;;10.98;64.38;98007.66;8315604;28;20226;-76